createdAt,value
2018-05-24T00:05:11.552Z,4.20
2018-05-24T00:11:15.894Z,1.90
2018-05-24T00:17:21.635Z,2.07
2018-05-24T00:23:26.402Z,4.43
2018-05-24T00:29:30.762Z,8.70
2018-05-24T00:35:35.918Z,7.20
2018-05-24T00:41:40.274Z,7.07
2018-05-24T00:47:44.612Z,3.87
2018-05-24T00:53:48.996Z,2.47
2018-05-24T00:59:53.412Z,8.43
2018-05-24T01:05:57.757Z,2.03
2018-05-24T01:12:02.119Z,6.77
2018-05-24T01:18:06.477Z,5.37
2018-05-24T01:24:10.882Z,7.60
2018-05-24T01:30:15.203Z,2.53
2018-05-24T01:36:19.601Z,4.63
2018-05-24T01:42:24.864Z,8.90
2018-05-24T01:48:29.244Z,3.40
2018-05-24T01:54:33.574Z,3.50
2018-05-24T02:00:37.966Z,6.00
2018-05-24T02:06:42.362Z,15.17
2018-05-24T02:12:46.801Z,4.17
2018-05-24T02:18:51.209Z,3.90
2018-05-24T02:24:55.578Z,3.67
2018-05-24T02:30:59.920Z,4.63
2018-05-24T02:37:04.269Z,3.00
2018-05-24T02:43:09.394Z,7.30
2018-05-24T02:49:13.737Z,4.77
2018-05-24T02:55:18.911Z,4.57
2018-05-24T03:01:24.270Z,5.23
2018-05-24T03:07:28.659Z,3.10
2018-05-24T03:13:33.140Z,4.77
2018-05-24T03:19:37.565Z,4.37
2018-05-24T03:25:41.878Z,8.97
2018-05-24T03:31:46.236Z,5.70
2018-05-24T03:37:50.920Z,6.03
2018-05-24T03:43:55.458Z,4.20
2018-05-24T03:50:00.598Z,6.13
2018-05-24T03:56:04.976Z,4.43
2018-05-24T04:02:27.072Z,3.67
2018-05-24T04:08:31.441Z,3.27
2018-05-24T04:14:35.802Z,4.60
2018-05-24T04:20:40.160Z,4.60
2018-05-24T04:26:45.435Z,3.70
2018-05-24T04:32:51.131Z,4.10
2018-05-24T04:38:55.517Z,6.77
2018-05-24T04:45:00.635Z,5.37
2018-05-24T04:51:05.329Z,4.63
2018-05-24T04:57:09.737Z,8.43
2018-05-24T05:03:14.085Z,4.97
2018-05-24T05:09:18.442Z,11.50
2018-05-24T05:15:23.035Z,4.67
2018-05-24T05:21:27.395Z,5.33
2018-05-24T05:27:31.785Z,4.87
2018-05-24T05:33:36.124Z,6.30
2018-05-24T05:39:41.983Z,5.60
2018-05-24T05:45:46.339Z,6.30
2018-05-24T05:51:50.753Z,6.70
2018-05-24T05:57:55.113Z,5.43
2018-05-24T06:03:59.453Z,4.87
2018-05-24T06:10:03.800Z,5.60
2018-05-24T06:16:08.920Z,7.33
2018-05-24T06:22:13.299Z,7.63
2018-05-24T06:28:17.714Z,6.17
2018-05-24T06:34:22.101Z,9.17
2018-05-24T06:40:26.538Z,9.40
2018-05-24T06:46:30.890Z,6.33
2018-05-24T06:52:35.205Z,4.87
2018-05-24T06:58:39.560Z,7.40
2018-05-24T07:04:43.925Z,5.00
2018-05-24T07:10:48.285Z,7.00
2018-05-24T07:16:52.941Z,5.80
2018-05-24T07:22:58.080Z,9.40
2018-05-24T07:29:02.523Z,7.00
2018-05-24T07:35:06.863Z,7.10
2018-05-24T07:41:12.068Z,7.70
2018-05-24T07:47:16.408Z,5.80
2018-05-24T07:53:21.390Z,7.27
2018-05-24T07:59:25.825Z,7.37
2018-05-24T08:05:30.937Z,8.30
2018-05-24T08:11:35.305Z,8.20
2018-05-24T08:17:39.657Z,12.40
2018-05-24T08:23:44.021Z,9.77
2018-05-24T08:29:48.397Z,10.40
2018-05-24T08:35:52.753Z,10.00
2018-05-24T08:41:57.108Z,10.13
2018-05-24T08:48:01.515Z,7.13
2018-05-24T08:54:05.866Z,20.23
2018-05-24T09:00:10.264Z,10.80
2018-05-24T09:06:16.145Z,11.27
2018-05-24T09:12:20.732Z,16.17
2018-05-24T09:18:25.134Z,15.63
2018-05-24T09:24:29.589Z,17.33
2018-05-24T09:30:33.938Z,9.70
2018-05-24T09:36:38.289Z,10.13
2018-05-24T09:42:43.446Z,11.07
2018-05-24T09:48:47.815Z,15.20
2018-05-24T09:54:52.433Z,11.73
2018-05-24T10:00:56.816Z,12.97
2018-05-24T10:07:01.944Z,15.33
2018-05-24T10:13:06.301Z,14.03
2018-05-24T10:19:10.653Z,12.87
2018-05-24T10:25:15.119Z,11.27
2018-05-24T10:31:20.793Z,12.77
2018-05-24T10:37:25.438Z,18.20
2018-05-24T10:43:29.792Z,12.67
2018-05-24T10:49:34.933Z,17.00
2018-05-24T10:55:39.318Z,14.70
2018-05-24T11:01:43.832Z,14.30
2018-05-24T11:07:49.053Z,32.23
2018-05-24T11:13:54.337Z,14.40
2018-05-24T11:19:58.705Z,14.20
2018-05-24T11:26:03.097Z,13.37
2018-05-24T11:32:07.488Z,16.20
2018-05-24T11:38:11.820Z,18.10
2018-05-24T11:44:16.966Z,16.63
2018-05-24T11:50:21.377Z,13.80
2018-05-24T11:56:25.735Z,15.23
2018-05-24T12:02:30.103Z,17.20
2018-05-24T12:08:34.502Z,14.40
2018-05-24T12:14:39.006Z,15.20
2018-05-24T12:20:44.202Z,15.17
2018-05-24T12:26:48.664Z,16.30
2018-05-24T12:32:54.027Z,20.60
2018-05-24T12:38:58.432Z,17.83
2018-05-24T12:45:03.551Z,14.13
2018-05-24T12:51:07.930Z,15.17
2018-05-24T12:57:12.303Z,15.03
2018-05-24T13:03:16.681Z,13.13
2018-05-24T13:09:22.569Z,15.03
2018-05-24T13:15:26.960Z,15.03
2018-05-24T13:21:31.323Z,12.50
2018-05-24T13:27:35.692Z,13.57
2018-05-24T13:33:40.831Z,16.83
2018-05-24T13:39:45.354Z,12.87
2018-05-24T13:45:49.848Z,15.43
2018-05-24T13:51:54.522Z,14.30
2018-05-24T13:57:59.633Z,12.57
2018-05-24T14:04:04.835Z,14.33
2018-05-24T14:10:09.248Z,15.20
2018-05-24T14:16:15.136Z,14.50
2018-05-24T14:22:20.170Z,14.40
2018-05-24T14:28:24.990Z,13.00
2018-05-24T14:34:29.341Z,13.33
2018-05-24T14:40:34.459Z,16.20
2018-05-24T14:46:38.857Z,15.90
2018-05-24T14:52:43.253Z,20.40
2018-05-24T14:58:47.655Z,20.13
2018-05-24T15:04:52.967Z,24.00
2018-05-24T15:10:57.344Z,17.70
2018-05-24T15:17:01.727Z,21.80
2018-05-24T15:23:06.123Z,24.93
2018-05-24T15:29:11.337Z,17.03
2018-05-24T15:35:15.706Z,19.47
2018-05-24T15:41:20.914Z,16.57
2018-05-24T15:47:25.654Z,11.10
2018-05-24T15:53:30.062Z,10.30
2018-05-24T15:59:34.630Z,14.43
2018-05-24T16:05:38.971Z,8.70
2018-05-24T16:11:43.338Z,8.60
2018-05-24T16:17:47.708Z,12.53
2018-05-24T16:23:52.454Z,9.30
2018-05-24T16:29:56.812Z,10.87
2018-05-24T16:36:01.171Z,9.70
2018-05-24T16:42:05.526Z,19.60
2018-05-24T16:48:09.885Z,9.60
2018-05-24T16:54:15.025Z,12.20
2018-05-24T17:00:20.537Z,26.03
2018-05-24T17:06:25.971Z,8.13
2018-05-24T17:12:30.366Z,7.17
2018-05-24T17:18:34.675Z,8.70
2018-05-24T17:24:39.039Z,9.53
2018-05-24T17:30:43.447Z,11.40
2018-05-24T17:36:47.797Z,13.10
2018-05-24T17:42:52.860Z,13.90
2018-05-24T17:48:57.229Z,14.10
2018-05-24T17:55:01.613Z,16.77
2018-05-24T18:01:05.966Z,11.50
2018-05-24T18:07:11.123Z,12.73
2018-05-24T18:13:15.476Z,10.20
2018-05-24T18:19:19.936Z,10.97
2018-05-24T18:25:24.598Z,15.87
2018-05-24T18:31:30.441Z,8.70
2018-05-24T18:37:34.817Z,23.87
2018-05-24T18:43:39.249Z,14.17
2018-05-24T18:49:43.709Z,16.20
2018-05-24T18:55:48.013Z,8.50
2018-05-24T19:01:53.358Z,15.20
2018-05-24T19:07:57.715Z,10.57
2018-05-24T19:14:02.122Z,15.37
2018-05-24T19:20:06.495Z,11.37
2018-05-24T19:26:11.024Z,15.60
2018-05-24T19:32:15.496Z,8.70
2018-05-24T19:38:19.852Z,17.20
2018-05-24T19:44:25.159Z,11.13
2018-05-24T19:50:30.365Z,12.67
2018-05-24T19:56:34.738Z,22.07
2018-05-24T20:02:39.184Z,15.27
2018-05-24T20:08:43.584Z,11.03
2018-05-24T20:14:48.775Z,13.93
2018-05-24T20:20:53.186Z,12.87
2018-05-24T20:26:57.659Z,13.60
2018-05-24T20:33:02.099Z,14.10
2018-05-24T20:39:07.247Z,10.83
2018-05-24T20:45:11.584Z,18.93
2018-05-24T20:51:15.948Z,15.17
2018-05-24T20:57:20.332Z,11.93
2018-05-24T21:03:24.774Z,14.17
2018-05-24T21:09:29.194Z,16.70
2018-05-24T21:15:33.544Z,11.00
2018-05-24T21:21:38.680Z,11.90
2018-05-24T21:27:43.211Z,17.30
2018-05-24T21:33:48.342Z,14.53
2018-05-24T21:39:54.055Z,17.60
2018-05-24T21:45:58.401Z,20.50
2018-05-24T21:52:02.776Z,15.70
2018-05-24T21:58:07.149Z,18.13
2018-05-24T22:04:11.955Z,17.47
2018-05-24T22:10:16.318Z,15.57
2018-05-24T22:16:21.176Z,13.93
2018-05-24T22:22:26.299Z,17.20
2018-05-24T22:28:30.647Z,17.50
2018-05-24T22:34:35.765Z,17.70
2018-05-24T22:40:40.136Z,21.23
2018-05-24T22:46:44.489Z,20.50
2018-05-24T22:52:49.633Z,17.83
2018-05-24T22:58:54.224Z,19.33
2018-05-24T23:04:58.617Z,17.80
2018-05-24T23:11:03.025Z,20.40
2018-05-24T23:17:07.612Z,14.70
2018-05-24T23:23:11.980Z,14.10
2018-05-24T23:29:16.356Z,15.90
2018-05-24T23:35:21.009Z,22.40
2018-05-24T23:41:26.133Z,21.40
2018-05-24T23:47:30.636Z,17.13
2018-05-24T23:53:34.992Z,20.33
2018-05-24T23:59:39.339Z,21.67
